Time;durP1;ratioP1;P1;durP2;ratioP2;P2;SDS_P1;SDS_P2;PMS_P1;PMS_P2;Temp;Humidity;BMP_temperature;BMP_pressure;BME280_temperature;BME280_humidity;BME280_pressure;Samples;Min_cycle;Max_cycle;Signal;HPM_P1;HPM_P2
2021/04/09 00:01:43;;;;;;;18.37;13.50;;;4.50;99.90;;;;;;5012194;28;20889;-69
2021/04/09 00:04:09;;;;;;;16.40;11.40;;;4.40;99.90;;;;;;5012786;28;20208;-69
2021/04/09 00:06:35;;;;;;;17.43;11.80;;;4.40;99.90;;;;;;5011736;28;20445;-69
2021/04/09 00:09:00;;;;;;;13.80;11.50;;;4.50;99.90;;;;;;5011826;28;20913;-69
2021/04/09 00:11:26;;;;;;;13.60;10.97;;;4.50;99.90;;;;;;4995890;28;20243;-69
2021/04/09 00:13:52;;;;;;;16.57;11.30;;;4.40;99.90;;;;;;5010960;28;20183;-69
2021/04/09 00:16:18;;;;;;;12.27;10.47;;;4.40;99.90;;;;;;5011809;28;20437;-69
2021/04/09 00:18:43;;;;;;;14.37;11.83;;;4.40;99.90;;;;;;5012607;28;20268;-69
2021/04/09 00:21:09;;;;;;;14.57;11.07;;;4.40;99.90;;;;;;5012040;28;20174;-70
2021/04/09 00:23:35;;;;;;;13.90;12.47;;;4.40;99.90;;;;;;5011365;28;20178;-69
2021/04/09 00:26:01;;;;;;;15.60;11.20;;;4.40;99.90;;;;;;5009040;28;20189;-70
2021/04/09 00:28:27;;;;;;;17.03;11.70;;;4.40;99.90;;;;;;5013278;28;20188;-69
2021/04/09 00:30:53;;;;;;;14.97;11.80;;;4.40;99.90;;;;;;5011980;28;20906;-69
2021/04/09 00:33:19;;;;;;;20.97;12.10;;;4.50;99.90;;;;;;5011959;28;20652;-69
2021/04/09 00:35:45;;;;;;;15.30;12.70;;;4.50;99.90;;;;;;5009633;28;20447;-69
2021/04/09 00:38:11;;;;;;;15.20;11.40;;;4.50;99.90;;;;;;4993995;28;20178;-69
2021/04/09 00:40:39;;;;;;;11.80;10.40;;;4.40;99.90;;;;;;4995694;28;20483;-69
2021/04/09 00:43:07;;;;;;;19.13;10.63;;;4.40;99.90;;;;;;5011635;28;20761;-69
2021/04/09 00:45:37;;;;;;;16.40;11.90;;;4.40;99.90;;;;;;5002979;28;20840;-69
2021/04/09 00:48:04;;;;;;;13.70;11.30;;;4.40;99.90;;;;;;5013052;28;20896;-69
2021/04/09 00:50:30;;;;;;;14.43;10.60;;;4.40;99.90;;;;;;5009448;28;20446;-69
2021/04/09 00:52:58;;;;;;;17.33;11.70;;;4.40;99.90;;;;;;5011371;28;20555;-69
2021/04/09 00:55:24;;;;;;;12.00;9.63;;;4.40;99.90;;;;;;5007084;28;20510;-70
2021/04/09 00:57:51;;;;;;;14.07;11.23;;;4.40;99.90;;;;;;5011379;28;20435;-69
2021/04/09 01:00:18;;;;;;;15.37;11.13;;;4.40;99.90;;;;;;5010644;28;20189;-69
2021/04/09 01:02:43;;;;;;;13.60;11.63;;;4.40;99.90;;;;;;5011319;28;20772;-69
2021/04/09 01:05:11;;;;;;;13.47;11.07;;;4.30;99.90;;;;;;5010816;28;20547;-69
2021/04/09 01:07:39;;;;;;;16.23;11.40;;;4.40;99.90;;;;;;5008706;28;20188;-69
2021/04/09 01:10:05;;;;;;;13.93;10.60;;;4.40;99.90;;;;;;5009428;28;20757;-69
2021/04/09 01:12:31;;;;;;;13.10;9.70;;;4.40;99.90;;;;;;5010185;28;20554;-69
2021/04/09 01:14:57;;;;;;;17.13;10.37;;;4.40;99.90;;;;;;5010046;28;20447;-69
2021/04/09 01:17:41;;;;;;;14.10;11.20;;;4.30;99.90;;;;;;5009971;28;20451;-69
2021/04/09 01:20:28;;;;;;;14.23;10.70;;;4.40;99.90;;;;;;5010344;28;20427;-69
2021/04/09 01:23:12;;;;;;;15.73;11.40;;;4.40;99.90;;;;;;5013030;28;20418;-69
2021/04/09 01:25:54;;;;;;;13.23;9.30;;;4.30;99.90;;;;;;5008836;28;20419;-69
2021/04/09 01:28:46;;;;;;;14.50;10.43;;;4.30;99.90;;;;;;5011325;28;20437;-69
2021/04/09 01:31:30;;;;;;;13.23;10.77;;;4.30;99.90;;;;;;5002416;28;20612;-69
2021/04/09 01:33:58;;;;;;;12.60;10.40;;;4.30;99.90;;;;;;5012455;28;20443;-69
2021/04/09 01:36:36;;;;;;;13.70;10.50;;;4.30;99.90;;;;;;5008359;28;20459;-69
2021/04/09 01:39:12;;;;;;;12.20;10.03;;;4.30;99.90;;;;;;5008557;28;20420;-69
2021/04/09 01:41:39;;;;;;;14.50;9.97;;;4.30;99.90;;;;;;4993873;28;20771;-70
2021/04/09 01:44:07;;;;;;;18.00;9.97;;;4.30;99.90;;;;;;5010354;28;20874;-69
2021/04/09 01:46:41;;;;;;;11.33;9.40;;;4.30;99.90;;;;;;5009456;28;20429;-69
2021/04/09 01:49:08;;;;;;;13.43;10.47;;;4.30;99.90;;;;;;5010648;28;20484;-69
2021/04/09 01:51:35;;;;;;;16.37;10.30;;;4.30;99.90;;;;;;5010919;28;20446;-69
2021/04/09 01:54:02;;;;;;;20.63;10.20;;;4.30;99.90;;;;;;5010451;28;20995;-69
2021/04/09 01:56:28;;;;;;;12.87;10.17;;;4.30;99.90;;;;;;5010972;28;20430;-69
2021/04/09 01:58:55;;;;;;;16.17;10.77;;;4.30;99.90;;;;;;5010119;28;20751;-69
2021/04/09 02:01:22;;;;;;;13.30;11.10;;;4.30;99.90;;;;;;5009648;28;20436;-69
2021/04/09 02:03:52;;;;;;;14.90;9.97;;;4.30;99.90;;;;;;5010374;28;20936;-69
2021/04/09 02:06:19;;;;;;;13.60;9.53;;;4.30;99.90;;;;;;5010723;28;20906;-69
2021/04/09 02:08:45;;;;;;;12.33;10.43;;;4.40;99.90;;;;;;5007947;28;20910;-69
2021/04/09 02:11:11;;;;;;;14.93;9.87;;;4.30;99.90;;;;;;4994391;28;20972;-69
2021/04/09 02:13:38;;;;;;;12.30;10.23;;;4.40;99.90;;;;;;4994296;28;20459;-69
2021/04/09 02:16:05;;;;;;;16.20;11.30;;;4.30;99.90;;;;;;5009666;28;20447;-69
2021/04/09 02:18:31;;;;;;;12.53;9.83;;;4.30;99.90;;;;;;5009640;28;20431;-69
2021/04/09 02:21:01;;;;;;;13.30;9.80;;;4.30;99.90;;;;;;5011783;28;20924;-69
2021/04/09 02:23:28;;;;;;;13.40;10.27;;;4.30;99.90;;;;;;5010485;28;20897;-69
2021/04/09 02:25:57;;;;;;;12.20;11.00;;;4.20;99.90;;;;;;5010902;28;20450;-69
2021/04/09 02:28:24;;;;;;;13.17;10.00;;;4.20;99.90;;;;;;5010936;28;20473;-69
2021/04/09 02:31:03;;;;;;;16.47;10.40;;;4.20;99.90;;;;;;5013735;28;20437;-69
2021/04/09 02:33:36;;;;;;;12.70;10.20;;;4.10;99.90;;;;;;5014314;28;20467;-69
2021/04/09 02:36:12;;;;;;;12.00;10.60;;;4.10;99.90;;;;;;5012973;28;20514;-69
2021/04/09 02:38:39;;;;;;;14.63;10.93;;;4.20;99.90;;;;;;5012835;28;20435;-69
2021/04/09 02:41:07;;;;;;;14.03;10.80;;;4.10;99.90;;;;;;5014416;28;20754;-69
2021/04/09 02:43:33;;;;;;;12.77;9.80;;;4.10;99.90;;;;;;5010305;28;20534;-69
2021/04/09 02:45:58;;;;;;;14.20;10.00;;;4.00;99.90;;;;;;5010625;28;20438;-69
2021/04/09 02:48:29;;;;;;;11.00;9.80;;;4.00;99.90;;;;;;5013367;28;20485;-69
2021/04/09 02:50:57;;;;;;;17.70;10.50;;;3.90;99.90;;;;;;5012748;28;20550;-69
2021/04/09 02:53:28;;;;;;;12.50;9.30;;;3.90;99.90;;;;;;5011790;28;20468;-69
2021/04/09 02:55:56;;;;;;;14.30;10.30;;;3.90;99.90;;;;;;5011745;28;20858;-69
2021/04/09 02:58:24;;;;;;;12.30;10.37;;;3.80;99.90;;;;;;5014357;28;20457;-69
2021/04/09 03:00:52;;;;;;;11.80;9.93;;;3.90;99.90;;;;;;5013692;28;20446;-69
2021/04/09 03:03:18;;;;;;;11.93;9.20;;;3.80;99.90;;;;;;5011900;28;20439;-69
2021/04/09 03:05:45;;;;;;;15.90;10.23;;;3.90;99.90;;;;;;5011795;28;20479;-69
2021/04/09 03:08:13;;;;;;;13.87;9.17;;;3.80;99.90;;;;;;5013823;28;20429;-69
2021/04/09 03:10:39;;;;;;;13.97;9.70;;;3.80;99.90;;;;;;5010363;28;20443;-69
2021/04/09 03:13:04;;;;;;;12.30;9.40;;;3.70;99.90;;;;;;5011619;28;20465;-69
2021/04/09 03:15:46;;;;;;;14.83;10.50;;;3.80;99.90;;;;;;5011138;28;20803;-69
2021/04/09 03:18:13;;;;;;;14.63;9.67;;;3.70;99.90;;;;;;5012322;28;20169;-69
2021/04/09 03:20:40;;;;;;;11.93;9.50;;;3.60;99.90;;;;;;5013583;28;20454;-69
2021/04/09 03:23:06;;;;;;;10.80;9.13;;;3.70;99.90;;;;;;5014125;28;20743;-69
2021/04/09 03:25:33;;;;;;;14.03;9.30;;;3.70;99.90;;;;;;5008807;28;20463;-69
2021/04/09 03:27:58;;;;;;;12.40;9.90;;;3.70;99.90;;;;;;5013442;28;20434;-69
2021/04/09 03:30:25;;;;;;;13.53;9.00;;;3.60;99.90;;;;;;5012235;28;20445;-69
2021/04/09 03:32:51;;;;;;;12.13;9.60;;;3.60;99.90;;;;;;5014252;28;20535;-69
2021/04/09 03:35:17;;;;;;;12.27;9.33;;;3.50;99.90;;;;;;5011882;28;20455;-69
2021/04/09 03:37:44;;;;;;;10.00;9.00;;;3.50;99.90;;;;;;5013377;28;20425;-69
2021/04/09 03:40:10;;;;;;;15.43;9.70;;;3.60;99.90;;;;;;5012171;28;20442;-69
2021/04/09 03:42:36;;;;;;;11.50;9.17;;;3.60;99.90;;;;;;5012997;28;20458;-69
2021/04/09 03:45:04;;;;;;;13.27;8.47;;;3.50;99.90;;;;;;5011837;28;20437;-69
2021/04/09 03:47:30;;;;;;;14.57;10.27;;;3.60;99.90;;;;;;4996170;28;20303;-69
2021/04/09 03:49:56;;;;;;;12.67;9.80;;;3.60;99.90;;;;;;5012683;28;20476;-69
2021/04/09 03:52:22;;;;;;;11.37;9.80;;;3.60;99.90;;;;;;5013064;28;20948;-69
2021/04/09 03:54:47;;;;;;;15.10;9.67;;;3.50;99.90;;;;;;5014033;28;20191;-69
2021/04/09 03:57:13;;;;;;;15.97;9.90;;;3.60;99.90;;;;;;5011401;28;20435;-69
2021/04/09 03:59:39;;;;;;;16.10;9.90;;;3.50;99.90;;;;;;5011162;28;20298;-69
2021/04/09 04:02:05;;;;;;;16.87;10.70;;;3.50;99.90;;;;;;5014377;28;20296;-69
2021/04/09 04:04:30;;;;;;;16.10;10.33;;;3.50;99.90;;;;;;4996668;28;20249;-69
2021/04/09 04:06:56;;;;;;;14.43;9.27;;;3.50;99.90;;;;;;5013102;28;20440;-69
2021/04/09 04:09:22;;;;;;;12.87;8.90;;;3.50;99.90;;;;;;5012415;28;20207;-69
2021/04/09 04:11:47;;;;;;;14.30;9.77;;;3.50;99.90;;;;;;5013439;28;20202;-69
2021/04/09 04:14:13;;;;;;;12.77;9.03;;;3.50;99.90;;;;;;4992385;28;20306;-69
2021/04/09 04:16:39;;;;;;;12.93;8.33;;;3.50;99.90;;;;;;5010897;28;20274;-69
2021/04/09 04:19:04;;;;;;;13.80;9.50;;;3.60;99.90;;;;;;5013216;28;20597;-69
2021/04/09 04:21:30;;;;;;;12.30;9.20;;;3.50;99.90;;;;;;5013247;28;20244;-69
2021/04/09 04:23:56;;;;;;;12.30;9.07;;;3.60;99.90;;;;;;5012278;28;20801;-69
2021/04/09 04:26:22;;;;;;;9.13;7.80;;;3.60;99.90;;;;;;5011088;28;20639;-69
2021/04/09 04:28:47;;;;;;;11.23;8.40;;;3.60;99.90;;;;;;5011607;28;20270;-69
2021/04/09 04:31:14;;;;;;;15.07;9.40;;;3.60;99.90;;;;;;5012996;28;20628;-69
2021/04/09 04:33:39;;;;;;;11.80;9.40;;;3.60;99.90;;;;;;5011824;28;20199;-69
2021/04/09 04:36:05;;;;;;;13.50;9.20;;;3.60;99.90;;;;;;5011264;28;20518;-69
2021/04/09 04:38:31;;;;;;;13.47;8.60;;;3.70;99.90;;;;;;5013750;28;20183;-69
2021/04/09 04:40:57;;;;;;;18.03;9.50;;;3.60;99.90;;;;;;5011302;28;20428;-69
2021/04/09 04:43:23;;;;;;;10.47;8.33;;;3.60;99.90;;;;;;5011712;28;20182;-69
2021/04/09 04:45:49;;;;;;;11.27;8.90;;;3.70;99.90;;;;;;5010682;28;20437;-69
2021/04/09 04:48:15;;;;;;;11.87;8.93;;;3.70;99.90;;;;;;5011255;28;20221;-69
2021/04/09 04:50:40;;;;;;;16.67;9.20;;;3.70;99.90;;;;;;5010433;28;20187;-69
2021/04/09 04:53:06;;;;;;;8.90;8.00;;;3.80;99.90;;;;;;4994702;28;20795;-69
2021/04/09 04:55:32;;;;;;;13.00;10.57;;;3.80;99.90;;;;;;5011334;28;20248;-69
2021/04/09 04:57:58;;;;;;;12.90;8.37;;;3.80;99.90;;;;;;5012329;28;20195;-69
2021/04/09 05:00:25;;;;;;;10.73;9.10;;;3.80;99.90;;;;;;5011227;28;20435;-69
2021/04/09 05:02:50;;;;;;;13.47;9.37;;;3.80;99.90;;;;;;5010592;28;20472;-69
2021/04/09 05:05:16;;;;;;;18.00;9.80;;;3.80;99.90;;;;;;5010696;28;20457;-69
2021/04/09 05:07:42;;;;;;;10.20;8.07;;;3.80;99.90;;;;;;5012094;28;20606;-69
2021/04/09 05:10:08;;;;;;;11.43;8.47;;;3.90;99.90;;;;;;5011455;28;20680;-69
2021/04/09 05:12:34;;;;;;;12.20;9.50;;;3.90;99.90;;;;;;5012528;28;20286;-69
2021/04/09 05:15:00;;;;;;;10.57;8.70;;;3.90;99.90;;;;;;5010511;28;20426;-69
2021/04/09 05:17:26;;;;;;;12.00;7.53;;;3.90;99.90;;;;;;5012696;28;20432;-69
2021/04/09 05:19:52;;;;;;;14.40;9.40;;;4.00;99.90;;;;;;5009394;28;20241;-69
2021/04/09 05:22:18;;;;;;;10.17;8.77;;;4.00;99.90;;;;;;5008252;28;20464;-69
2021/04/09 05:24:46;;;;;;;18.60;9.30;;;4.10;99.90;;;;;;5008534;28;20438;-69
2021/04/09 05:27:12;;;;;;;9.33;8.00;;;4.10;99.90;;;;;;5006213;28;20441;-69
2021/04/09 05:29:37;;;;;;;16.53;10.33;;;4.10;99.90;;;;;;5008462;28;20443;-70
2021/04/09 05:32:07;;;;;;;11.50;8.60;;;4.10;99.90;;;;;;5011630;28;20854;-69
2021/04/09 05:34:32;;;;;;;11.67;8.57;;;4.20;99.90;;;;;;5010665;28;20291;-69
2021/04/09 05:36:58;;;;;;;12.70;8.33;;;4.30;99.90;;;;;;5009223;28;20550;-69
2021/04/09 05:39:24;;;;;;;11.77;8.93;;;4.30;99.90;;;;;;5011567;28;20210;-69
2021/04/09 05:41:49;;;;;;;12.10;8.63;;;4.40;99.90;;;;;;5007494;28;20196;-69
2021/04/09 05:44:15;;;;;;;16.30;9.50;;;4.50;99.90;;;;;;5006130;28;20206;-69
2021/04/09 05:46:41;;;;;;;11.37;8.60;;;4.60;99.90;;;;;;4986910;28;20696;-69
2021/04/09 05:49:06;;;;;;;14.00;7.97;;;4.60;99.90;;;;;;5007233;28;20190;-69
2021/04/09 05:51:34;;;;;;;10.03;8.97;;;4.60;99.90;;;;;;5009632;28;20268;-69
2021/04/09 05:54:00;;;;;;;11.50;8.53;;;4.60;99.90;;;;;;5004374;28;20176;-69
2021/04/09 05:56:26;;;;;;;12.27;9.47;;;4.70;99.90;;;;;;4999599;28;20990;-69
2021/04/09 05:58:51;;;;;;;8.87;7.60;;;4.70;99.90;;;;;;5001494;28;20185;-69
2021/04/09 06:01:17;;;;;;;12.37;8.07;;;4.70;99.90;;;;;;4992144;28;20499;-69
2021/04/09 06:03:43;;;;;;;14.37;9.07;;;4.70;99.90;;;;;;5008523;28;20185;-69
2021/04/09 06:06:09;;;;;;;14.40;9.60;;;4.70;99.90;;;;;;5007699;28;20290;-69
2021/04/09 06:08:34;;;;;;;15.90;9.00;;;4.70;99.90;;;;;;5006585;28;20480;-69
2021/04/09 06:11:00;;;;;;;15.40;9.70;;;4.70;99.90;;;;;;5004422;28;20205;-69
2021/04/09 06:13:27;;;;;;;19.40;11.03;;;4.70;99.90;;;;;;5005990;28;20659;-70
2021/04/09 06:15:53;;;;;;;11.27;8.70;;;4.70;99.90;;;;;;5004671;28;20602;-69
2021/04/09 06:18:19;;;;;;;14.07;10.17;;;4.80;99.90;;;;;;5009000;28;20503;-70
2021/04/09 06:20:44;;;;;;;18.90;9.60;;;4.80;99.90;;;;;;5010013;28;20633;-69
2021/04/09 06:23:10;;;;;;;13.97;9.30;;;4.70;99.90;;;;;;5008722;28;20620;-69
2021/04/09 06:25:36;;;;;;;12.70;8.60;;;4.70;99.90;;;;;;5007215;28;20190;-70
2021/04/09 06:28:01;;;;;;;9.90;8.47;;;4.80;99.90;;;;;;4994499;28;20531;-69
2021/04/09 06:30:27;;;;;;;11.47;8.70;;;4.80;99.90;;;;;;5008373;28;20190;-69
2021/04/09 06:32:52;;;;;;;11.60;8.47;;;4.90;99.90;;;;;;5004455;28;20594;-69
2021/04/09 06:35:18;;;;;;;15.33;9.23;;;5.00;99.90;;;;;;5003106;28;20877;-69
2021/04/09 06:37:44;;;;;;;14.90;9.50;;;5.00;99.90;;;;;;5011869;28;20190;-69
2021/04/09 06:40:12;;;;;;;9.23;8.10;;;5.00;99.90;;;;;;5004749;28;20180;-69
2021/04/09 06:42:38;;;;;;;13.20;9.00;;;5.00;99.90;;;;;;5004299;28;20179;-69
2021/04/09 06:45:09;;;;;;;13.50;9.40;;;5.10;99.90;;;;;;5006080;28;20433;-69
2021/04/09 06:47:35;;;;;;;15.63;9.77;;;5.10;99.90;;;;;;5007335;28;20185;-69
2021/04/09 06:50:02;;;;;;;16.10;9.73;;;5.10;99.90;;;;;;5011569;28;20433;-69
2021/04/09 06:52:28;;;;;;;16.30;9.50;;;5.20;99.90;;;;;;5011544;28;20467;-70
2021/04/09 06:54:55;;;;;;;12.20;8.73;;;5.30;99.90;;;;;;5010735;28;20914;-70
2021/04/09 06:57:23;;;;;;;12.93;8.77;;;5.40;99.90;;;;;;5006070;28;20460;-69
2021/04/09 06:59:51;;;;;;;15.57;9.20;;;5.40;99.90;;;;;;5009185;28;20428;-70
2021/04/09 07:02:17;;;;;;;11.80;9.43;;;5.50;99.90;;;;;;5008775;28;20433;-70
2021/04/09 07:04:47;;;;;;;17.93;11.33;;;5.50;99.90;;;;;;5006731;28;20438;-70
2021/04/09 07:07:15;;;;;;;15.90;9.37;;;5.60;99.90;;;;;;5004547;28;20483;-69
2021/04/09 07:09:45;;;;;;;11.93;9.30;;;5.60;99.90;;;;;;5010598;28;20430;-69
2021/04/09 07:12:28;;;;;;;16.23;10.60;;;5.70;99.90;;;;;;5006533;28;20498;-69
2021/04/09 07:15:02;;;;;;;11.90;9.80;;;5.80;99.90;;;;;;5008804;28;20903;-69
2021/04/09 07:17:33;;;;;;;11.53;9.80;;;5.90;99.90;;;;;;5006571;28;20429;-70
2021/04/09 07:20:08;;;;;;;14.33;9.30;;;5.90;99.90;;;;;;5004828;28;20468;-71
2021/04/09 07:22:35;;;;;;;16.43;8.90;;;6.00;99.90;;;;;;5009021;28;20500;-71
2021/04/09 07:25:28;;;;;;;9.50;8.50;;;6.00;99.90;;;;;;5010050;28;21072;-71
2021/04/09 07:28:12;;;;;;;14.93;9.73;;;6.10;99.90;;;;;;5009008;28;20444;-71
2021/04/09 07:30:39;;;;;;;11.70;9.20;;;6.20;99.90;;;;;;5013263;28;20440;-71
2021/04/09 07:33:09;;;;;;;11.67;8.57;;;6.20;99.90;;;;;;5008784;28;20461;-71
2021/04/09 07:35:48;;;;;;;20.37;10.93;;;6.40;99.90;;;;;;5011001;28;20536;-71
2021/04/09 07:38:39;;;;;;;19.83;9.13;;;6.40;99.90;;;;;;5011216;28;20420;-71
2021/04/09 07:41:08;;;;;;;12.03;10.10;;;6.40;99.90;;;;;;5012597;28;20459;-71
2021/04/09 07:43:35;;;;;;;13.43;9.17;;;6.50;99.90;;;;;;5004918;28;20438;-71
2021/04/09 07:46:04;;;;;;;14.30;9.23;;;6.50;99.90;;;;;;5009305;28;20440;-72
2021/04/09 07:48:38;;;;;;;16.40;10.33;;;6.50;99.90;;;;;;5013246;28;20441;-71
2021/04/09 07:51:05;;;;;;;12.17;8.80;;;6.50;99.90;;;;;;5011892;28;20444;-71
2021/04/09 07:53:31;;;;;;;14.70;9.87;;;6.50;99.90;;;;;;5011984;28;20539;-71
2021/04/09 07:56:09;;;;;;;12.33;9.00;;;6.60;99.90;;;;;;5014849;28;20529;-72
2021/04/09 07:58:36;;;;;;;10.77;9.03;;;6.80;99.90;;;;;;5014947;28;20193;-74
2021/04/09 08:01:04;;;;;;;14.80;9.50;;;7.00;99.90;;;;;;5026209;28;20914;-74
2021/04/09 08:03:39;;;;;;;12.70;9.20;;;7.00;99.90;;;;;;5022703;28;20462;-74
2021/04/09 08:06:11;;;;;;;12.90;8.60;;;7.10;99.90;;;;;;5029242;28;20549;-74
2021/04/09 08:08:46;;;;;;;12.57;9.87;;;7.00;99.90;;;;;;5027467;28;20486;-73
2021/04/09 08:11:35;;;;;;;12.70;9.30;;;7.00;99.90;;;;;;5027578;28;20437;-74
2021/04/09 08:14:21;;;;;;;15.70;9.17;;;7.00;99.90;;;;;;5029297;28;20897;-74
2021/04/09 08:16:49;;;;;;;12.97;9.20;;;7.10;99.90;;;;;;5027632;28;20423;-74
2021/04/09 08:19:19;;;;;;;13.97;9.30;;;7.20;99.90;;;;;;5029694;28;20424;-74
2021/04/09 08:21:50;;;;;;;12.97;9.33;;;7.30;99.90;;;;;;5032311;28;20404;-74
2021/04/09 08:24:18;;;;;;;13.50;9.53;;;7.40;99.90;;;;;;5025336;28;20428;-75
2021/04/09 08:26:43;;;;;;;14.07;9.27;;;7.40;99.90;;;;;;5017495;28;20962;-71
2021/04/09 08:29:11;;;;;;;12.40;9.33;;;7.40;99.90;;;;;;5012791;28;20488;-71
2021/04/09 08:31:39;;;;;;;13.10;9.10;;;7.40;99.90;;;;;;5011787;28;21103;-71
2021/04/09 08:34:07;;;;;;;10.43;9.33;;;7.50;99.90;;;;;;4996478;28;20774;-70
2021/04/09 08:36:36;;;;;;;10.03;9.00;;;7.70;99.90;;;;;;5008129;28;20452;-71
2021/04/09 08:39:04;;;;;;;12.43;9.80;;;7.80;99.90;;;;;;5012121;28;20429;-71
2021/04/09 08:41:31;;;;;;;14.83;9.63;;;7.80;99.90;;;;;;5012316;28;20599;-71
2021/04/09 08:43:56;;;;;;;12.00;9.10;;;7.80;99.90;;;;;;5011934;28;20444;-71
2021/04/09 08:46:22;;;;;;;15.90;9.57;;;7.80;99.90;;;;;;5011577;28;20429;-71
2021/04/09 08:48:49;;;;;;;12.30;9.00;;;7.80;99.90;;;;;;5012438;28;20194;-71
2021/04/09 08:51:20;;;;;;;13.67;10.70;;;7.90;99.90;;;;;;5011234;28;20181;-71
2021/04/09 08:53:45;;;;;;;11.07;9.13;;;8.00;99.90;;;;;;5010775;28;20453;-72
2021/04/09 08:56:12;;;;;;;8.83;7.93;;;8.20;99.90;;;;;;5011918;28;20429;-71
2021/04/09 08:58:45;;;;;;;14.53;8.80;;;8.30;99.90;;;;;;4993412;28;20644;-71
2021/04/09 09:01:13;;;;;;;12.63;8.80;;;8.30;99.90;;;;;;5008842;28;20758;-71
2021/04/09 09:03:39;;;;;;;11.23;9.60;;;8.40;99.90;;;;;;5011316;28;20444;-71
2021/04/09 09:06:09;;;;;;;10.57;9.27;;;8.50;99.90;;;;;;5011892;28;20430;-71
2021/04/09 09:08:41;;;;;;;11.93;9.27;;;8.70;99.90;;;;;;5009070;28;20751;-71
2021/04/09 09:11:07;;;;;;;11.23;8.97;;;8.90;99.90;;;;;;5010743;28;20528;-71
2021/04/09 09:13:46;;;;;;;15.97;9.60;;;8.90;99.90;;;;;;5009292;28;20497;-71
2021/04/09 09:16:21;;;;;;;15.70;8.70;;;8.80;99.90;;;;;;5012553;28;20932;-71
2021/04/09 09:18:55;;;;;;;10.90;8.90;;;8.70;99.90;;;;;;5011475;28;20429;-71
2021/04/09 09:21:26;;;;;;;13.27;10.03;;;8.60;99.90;;;;;;5012948;28;20774;-71
2021/04/09 09:24:03;;;;;;;11.63;9.00;;;8.70;99.90;;;;;;5010434;28;20492;-71
2021/04/09 09:26:42;;;;;;;10.23;8.17;;;8.60;99.90;;;;;;5012500;28;20439;-71
2021/04/09 09:29:22;;;;;;;9.93;8.17;;;8.70;99.90;;;;;;5015123;28;20953;-72
2021/04/09 09:32:05;;;;;;;10.63;9.20;;;8.70;99.90;;;;;;5015494;28;20431;-71
2021/04/09 09:34:32;;;;;;;12.30;8.47;;;8.70;99.90;;;;;;5015370;28;20508;-71
2021/04/09 09:37:07;;;;;;;11.40;8.77;;;8.80;99.90;;;;;;5013583;28;20512;-72
2021/04/09 09:39:43;;;;;;;11.20;9.37;;;8.90;99.90;;;;;;5010860;28;20436;-71
2021/04/09 09:42:22;;;;;;;9.60;8.60;;;9.10;99.90;;;;;;4990866;28;20926;-71
2021/04/09 09:44:54;;;;;;;9.33;7.83;;;9.20;99.90;;;;;;5008865;28;20500;-71
2021/04/09 09:47:33;;;;;;;9.87;8.30;;;9.30;99.90;;;;;;5012221;28;20760;-71
2021/04/09 09:50:04;;;;;;;9.87;8.97;;;9.30;99.90;;;;;;5011170;28;20435;-71
2021/04/09 09:52:46;;;;;;;12.53;9.37;;;9.40;99.90;;;;;;4995158;28;20467;-71
2021/04/09 09:55:32;;;;;;;11.90;7.70;;;9.60;99.90;;;;;;5012500;28;20461;-71
2021/04/09 09:58:18;;;;;;;10.40;7.73;;;9.70;99.90;;;;;;5011696;28;20444;-71
2021/04/09 10:01:06;;;;;;;14.10;8.90;;;9.80;99.90;;;;;;5003153;28;20483;-71
2021/04/09 10:03:36;;;;;;;15.13;8.47;;;10.00;99.90;;;;;;5013476;28;20942;-72
2021/04/09 10:06:05;;;;;;;12.10;8.60;;;9.90;99.90;;;;;;5012484;28;20467;-72
2021/04/09 10:08:33;;;;;;;8.83;7.27;;;10.00;99.90;;;;;;5012134;28;20421;-72
2021/04/09 10:11:02;;;;;;;10.07;8.20;;;10.10;99.90;;;;;;5010150;28;20552;-71
2021/04/09 10:13:33;;;;;;;11.57;8.43;;;10.20;99.90;;;;;;5010471;28;20840;-71
2021/04/09 10:16:10;;;;;;;10.83;8.07;;;10.20;99.90;;;;;;5012819;28;20448;-71
2021/04/09 10:18:38;;;;;;;8.47;7.53;;;10.40;99.90;;;;;;5012687;28;20417;-71
2021/04/09 10:21:13;;;;;;;9.33;7.50;;;10.50;99.90;;;;;;5014060;28;20426;-72
2021/04/09 10:23:39;;;;;;;8.47;7.60;;;10.50;99.90;;;;;;5011497;28;20420;-72
2021/04/09 10:26:05;;;;;;;9.20;7.30;;;10.60;99.90;;;;;;5013320;28;20440;-71
2021/04/09 10:28:38;;;;;;;10.27;8.03;;;10.60;99.90;;;;;;5012924;28;20409;-71
2021/04/09 10:31:14;;;;;;;7.80;7.00;;;10.60;99.90;;;;;;5009223;28;20175;-72
2021/04/09 10:33:45;;;;;;;9.10;7.17;;;10.50;99.90;;;;;;5013326;28;20453;-71
2021/04/09 10:36:22;;;;;;;9.73;7.10;;;10.70;99.90;;;;;;5009536;28;20469;-71
2021/04/09 10:38:52;;;;;;;10.90;7.50;;;10.70;99.90;;;;;;5009997;28;20425;-71
2021/04/09 10:41:43;;;;;;;8.90;6.90;;;10.60;99.90;;;;;;5002548;28;20429;-71
2021/04/09 10:44:11;;;;;;;9.10;7.27;;;10.70;99.90;;;;;;5012828;28;20427;-71
2021/04/09 10:46:39;;;;;;;8.03;6.87;;;10.80;99.90;;;;;;5010937;28;20433;-71
2021/04/09 10:49:08;;;;;;;10.50;7.20;;;11.10;99.90;;;;;;5010652;28;20425;-72
2021/04/09 10:51:45;;;;;;;7.73;6.93;;;11.40;99.90;;;;;;5014389;28;20918;-71
2021/04/09 10:54:16;;;;;;;7.67;6.97;;;11.50;99.90;;;;;;5015763;28;20417;-71
2021/04/09 10:56:49;;;;;;;9.67;7.67;;;11.80;99.90;;;;;;5014634;28;20449;-71
2021/04/09 10:59:15;;;;;;;9.20;6.77;;;11.70;99.90;;;;;;5016492;28;20895;-71
2021/04/09 11:01:41;;;;;;;11.10;7.80;;;11.80;99.90;;;;;;5013801;28;20491;-71
2021/04/09 11:04:07;;;;;;;7.70;7.00;;;11.80;99.90;;;;;;5015115;28;20193;-71
2021/04/09 11:06:33;;;;;;;7.43;6.73;;;11.80;99.90;;;;;;5014776;28;20464;-71
2021/04/09 11:09:03;;;;;;;8.10;7.00;;;11.70;99.90;;;;;;4993689;28;20434;-71
2021/04/09 11:11:35;;;;;;;7.37;6.63;;;11.70;99.90;;;;;;5005450;28;20842;-71
2021/04/09 11:14:03;;;;;;;11.17;7.80;;;11.70;99.90;;;;;;5011757;28;21009;-71
2021/04/09 11:16:45;;;;;;;11.97;7.50;;;11.60;99.90;;;;;;5004648;28;20903;-71
2021/04/09 11:19:20;;;;;;;9.87;7.20;;;11.50;99.90;;;;;;5009081;28;20465;-72
2021/04/09 11:21:48;;;;;;;8.87;7.97;;;11.50;99.90;;;;;;5013064;28;20464;-72
2021/04/09 11:24:21;;;;;;;11.47;8.50;;;11.50;99.90;;;;;;5013640;28;20453;-71
2021/04/09 11:26:48;;;;;;;8.23;7.13;;;11.70;99.90;;;;;;5014391;28;20828;-72
2021/04/09 11:29:42;;;;;;;9.53;8.43;;;11.80;99.90;;;;;;5013072;28;20496;-72
2021/04/09 11:32:13;;;;;;;11.17;7.17;;;11.90;99.90;;;;;;5011950;28;20461;-72
2021/04/09 11:34:41;;;;;;;8.47;7.67;;;12.00;99.90;;;;;;5012965;28;20418;-71
2021/04/09 11:37:11;;;;;;;8.90;8.00;;;12.00;99.90;;;;;;5012388;28;20440;-72
2021/04/09 11:39:57;;;;;;;9.57;7.07;;;12.10;99.90;;;;;;5012502;28;20419;-72
2021/04/09 11:42:26;;;;;;;7.77;7.07;;;11.90;99.90;;;;;;5011919;28;20555;-71
2021/04/09 11:44:52;;;;;;;7.60;6.60;;;11.80;99.90;;;;;;5011287;28;20835;-71
2021/04/09 11:47:19;;;;;;;11.53;8.53;;;11.40;99.90;;;;;;5013024;28;20512;-71
2021/04/09 11:50:08;;;;;;;10.57;7.43;;;11.30;99.90;;;;;;5012070;28;20604;-71
2021/04/09 11:52:53;;;;;;;13.10;7.50;;;11.20;99.90;;;;;;5008023;28;20480;-71
2021/04/09 11:55:20;;;;;;;8.47;7.60;;;11.20;99.90;;;;;;5010035;28;20504;-71
2021/04/09 11:57:46;;;;;;;11.20;8.23;;;11.10;99.90;;;;;;5013692;28;20855;-71
2021/04/09 12:00:32;;;;;;;8.50;7.70;;;11.10;99.90;;;;;;5011516;28;20429;-71
2021/04/09 12:03:04;;;;;;;11.43;7.10;;;11.20;99.90;;;;;;5012214;28;20185;-71
2021/04/09 12:05:32;;;;;;;9.53;7.90;;;11.20;99.90;;;;;;5012281;28;20921;-71
2021/04/09 12:07:58;;;;;;;8.53;7.73;;;11.20;99.90;;;;;;5012863;28;20430;-71
2021/04/09 12:10:27;;;;;;;8.70;7.80;;;11.10;99.90;;;;;;5009935;28;20430;-71
2021/04/09 12:12:53;;;;;;;12.43;8.60;;;11.00;99.90;;;;;;5013833;28;20449;-71
2021/04/09 12:15:22;;;;;;;12.63;9.63;;;11.00;99.90;;;;;;5015197;28;20445;-71
2021/04/09 12:17:47;;;;;;;12.33;7.93;;;10.80;99.90;;;;;;5015646;28;20559;-71
2021/04/09 12:20:18;;;;;;;9.87;8.90;;;10.70;99.90;;;;;;5015607;28;20854;-71
2021/04/09 12:22:45;;;;;;;10.93;8.07;;;10.60;99.90;;;;;;5014548;28;20174;-71
2021/04/09 12:25:13;;;;;;;8.30;6.80;;;10.60;99.90;;;;;;5013815;28;20425;-71
2021/04/09 12:27:39;;;;;;;8.60;7.60;;;10.50;99.90;;;;;;5015109;28;20512;-71
2021/04/09 12:30:08;;;;;;;7.70;6.93;;;10.50;99.90;;;;;;5014967;28;20418;-71
2021/04/09 12:32:34;;;;;;;11.63;7.20;;;10.50;99.90;;;;;;5014703;28;21028;-71
2021/04/09 12:35:00;;;;;;;9.10;6.90;;;10.50;99.90;;;;;;5013962;28;20425;-71
2021/04/09 12:37:26;;;;;;;9.33;7.57;;;10.50;99.90;;;;;;5013326;28;20421;-71
2021/04/09 12:39:52;;;;;;;8.57;7.37;;;10.50;99.90;;;;;;5014323;28;20417;-71
2021/04/09 12:42:19;;;;;;;11.23;7.50;;;10.40;99.90;;;;;;5009025;28;20616;-71
2021/04/09 12:44:45;;;;;;;12.57;8.23;;;10.30;99.90;;;;;;5010899;28;20429;-71
2021/04/09 12:47:11;;;;;;;8.47;7.63;;;10.20;99.90;;;;;;5013100;28;20426;-71
2021/04/09 12:49:37;;;;;;;9.07;7.67;;;10.10;99.90;;;;;;5009418;28;20433;-71
2021/04/09 12:52:04;;;;;;;8.47;7.60;;;10.10;99.90;;;;;;5011848;28;20193;-71
2021/04/09 12:54:30;;;;;;;10.47;7.50;;;10.10;99.90;;;;;;5004727;28;20460;-71